Time;durP1;ratioP1;P1;durP2;ratioP2;P2;SDS_P1;SDS_P2;PMS_P1;PMS_P2;Temp;Humidity;BMP_temperature;BMP_pressure;BME280_temperature;BME280_humidity;BME280_pressure;Samples;Min_cycle;Max_cycle;Signal;HPM_P1;HPM_P2
2021/06/25 00:00:45;;;;;;;9.45;4.35;;;;;;;;;;5091966;28;20020;-75
2021/06/25 00:03:12;;;;;;;11.98;3.97;;;;;;;;;;5079469;28;20408;-78
2021/06/25 00:05:38;;;;;;;4.75;3.85;;;;;;;;;;5071599;28;20021;-77
2021/06/25 00:08:04;;;;;;;8.18;4.40;;;;;;;;;;5071475;28;20091;-77
2021/06/25 00:10:30;;;;;;;18.35;5.30;;;;;;;;;;5081985;28;20046;-77
2021/06/25 00:12:57;;;;;;;8.40;4.80;;;;;;;;;;5091255;28;20024;-77
2021/06/25 00:15:23;;;;;;;7.32;5.13;;;;;;;;;;5091545;28;20032;-77
2021/06/25 00:17:49;;;;;;;5.78;5.18;;;;;;;;;;5091526;28;20020;-78
2021/06/25 00:20:16;;;;;;;9.25;6.55;;;;;;;;;;5091040;28;20507;-78
2021/06/25 00:22:42;;;;;;;8.15;5.13;;;;;;;;;;5080663;28;20036;-78
2021/06/25 00:25:09;;;;;;;8.98;5.18;;;;;;;;;;5071262;28;20020;-78
2021/06/25 00:27:35;;;;;;;12.43;5.72;;;;;;;;;;5076034;28;20028;-77
2021/06/25 00:30:01;;;;;;;11.32;6.45;;;;;;;;;;5082907;28;20082;-78
2021/06/25 00:32:27;;;;;;;8.65;5.70;;;;;;;;;;5071321;28;20427;-78
2021/06/25 00:34:53;;;;;;;11.38;5.97;;;;;;;;;;5080607;28;20024;-78
2021/06/25 00:37:19;;;;;;;7.03;5.75;;;;;;;;;;5091155;28;20040;-78
2021/06/25 00:39:45;;;;;;;10.10;6.05;;;;;;;;;;5084185;28;20052;-78
2021/06/25 00:42:11;;;;;;;9.68;5.88;;;;;;;;;;5074749;28;20032;-78
2021/06/25 00:44:41;;;;;;;9.70;6.15;;;;;;;;;;5073437;28;20041;-78
2021/06/25 00:47:10;;;;;;;11.45;6.13;;;;;;;;;;5082988;28;20042;-78
2021/06/25 00:49:37;;;;;;;11.38;7.28;;;;;;;;;;5094452;28;20032;-78
2021/06/25 00:52:03;;;;;;;19.90;6.95;;;;;;;;;;5094857;28;20484;-78
2021/06/25 00:54:29;;;;;;;9.07;5.97;;;;;;;;;;5096418;28;20032;-78
2021/06/25 00:56:55;;;;;;;9.07;6.30;;;;;;;;;;5095833;28;20050;-78
2021/06/25 00:59:21;;;;;;;8.07;6.05;;;;;;;;;;5086508;28;20101;-78
2021/06/25 01:01:48;;;;;;;12.85;6.72;;;;;;;;;;5095090;28;20032;-77
2021/06/25 01:04:14;;;;;;;23.05;7.03;;;;;;;;;;5094747;28;20024;-76
2021/06/25 01:06:40;;;;;;;14.25;6.10;;;;;;;;;;5094614;28;20020;-76
2021/06/25 01:09:08;;;;;;;10.73;3.22;;;;;;;;;;5093703;28;20058;-77
2021/06/25 01:11:35;;;;;;;13.85;2.20;;;;;;;;;;5077889;28;20063;-77
2021/06/25 01:14:01;;;;;;;17.63;2.75;;;;;;;;;;5074309;28;20028;-77
2021/06/25 01:16:27;;;;;;;10.77;2.97;;;;;;;;;;5075307;28;20017;-76
2021/06/25 01:18:53;;;;;;;7.45;2.70;;;;;;;;;;5072347;28;20101;-76
2021/06/25 01:21:19;;;;;;;3.42;2.78;;;;;;;;;;5074209;28;20047;-76
2021/06/25 01:23:46;;;;;;;4.32;3.00;;;;;;;;;;5093792;28;20020;-77
2021/06/25 01:26:12;;;;;;;19.98;3.67;;;;;;;;;;5094354;28;20500;-76
2021/06/25 01:28:38;;;;;;;9.48;3.33;;;;;;;;;;5080480;28;20029;-75
2021/06/25 01:31:05;;;;;;;11.10;3.45;;;;;;;;;;5073892;28;20036;-76
2021/06/25 01:33:32;;;;;;;13.07;4.25;;;;;;;;;;5074017;28;20021;-75
2021/06/25 01:35:58;;;;;;;4.07;3.20;;;;;;;;;;5053979;28;20033;-75
2021/06/25 01:38:25;;;;;;;6.57;3.58;;;;;;;;;;5053532;28;20041;-76
2021/06/25 01:40:51;;;;;;;4.70;3.67;;;;;;;;;;5053168;28;20033;-76
2021/06/25 01:43:18;;;;;;;4.47;3.90;;;;;;;;;;5053912;28;20025;-76
2021/06/25 01:45:44;;;;;;;8.93;4.97;;;;;;;;;;5053854;28;20029;-76
2021/06/25 01:48:10;;;;;;;6.15;4.30;;;;;;;;;;5092818;28;20074;-75
2021/06/25 19:52:08;;;;;;;14.10;8.70;;;;;;;;;;5105201;27;20111;-72
2021/06/25 19:54:34;;;;;;;12.65;9.93;;;;;;;;;;5095011;28;20120;-73
2021/06/25 19:57:00;;;;;;;12.00;9.02;;;;;;;;;;5081907;28;20518;-72
2021/06/25 19:59:28;;;;;;;17.05;12.55;;;;;;;;;;5073989;28;20028;-73
2021/06/25 20:01:54;;;;;;;14.80;11.30;;;;;;;;;;5073625;28;20385;-73
2021/06/25 20:04:21;;;;;;;14.05;9.23;;;;;;;;;;5073776;28;20024;-72
2021/06/25 20:06:48;;;;;;;12.90;9.90;;;;;;;;;;5075261;28;20039;-73
2021/06/25 20:09:14;;;;;;;18.88;9.82;;;;;;;;;;5073152;28;20024;-72
2021/06/25 20:11:40;;;;;;;13.02;8.63;;;;;;;;;;5074867;28;20086;-73
2021/06/25 20:14:07;;;;;;;11.48;9.27;;;;;;;;;;5074555;28;20562;-73
2021/06/25 20:16:33;;;;;;;16.25;8.88;;;;;;;;;;5073040;28;20099;-73
2021/06/25 20:18:59;;;;;;;13.20;8.63;;;;;;;;;;5073518;28;20032;-72
2021/06/25 20:21:25;;;;;;;9.73;8.27;;;;;;;;;;5075151;28;20029;-73
2021/06/25 20:23:51;;;;;;;16.25;9.75;;;;;;;;;;5102875;28;20439;-73
2021/06/25 20:26:17;;;;;;;13.02;9.27;;;;;;;;;;5074293;28;20372;-73
2021/06/25 20:28:44;;;;;;;11.82;10.00;;;;;;;;;;5074234;28;20021;-73
2021/06/25 20:31:10;;;;;;;17.10;10.82;;;;;;;;;;5071932;28;20059;-73
2021/06/25 20:33:36;;;;;;;16.08;11.45;;;;;;;;;;5074417;28;20020;-73
2021/06/25 20:36:03;;;;;;;14.82;11.50;;;;;;;;;;5073959;28;20082;-74
2021/06/25 20:38:29;;;;;;;12.65;11.25;;;;;;;;;;5065091;28;20107;-73
2021/06/25 20:40:55;;;;;;;17.65;9.70;;;;;;;;;;5072559;28;20056;-77
2021/06/25 20:43:21;;;;;;;13.90;10.80;;;;;;;;;;5073767;28;20024;-78
2021/06/25 20:45:50;;;;;;;15.98;10.63;;;;;;;;;;5075614;28;20046;-76
2021/06/25 20:48:16;;;;;;;17.05;11.68;;;;;;;;;;5073264;28;20128;-77
2021/06/25 20:50:42;;;;;;;17.85;11.88;;;;;;;;;;5070520;28;20036;-77
2021/06/25 20:53:09;;;;;;;13.52;11.23;;;;;;;;;;5074437;28;20095;-77
2021/06/25 20:55:35;;;;;;;13.75;11.48;;;;;;;;;;5073708;28;20052;-77
2021/06/25 20:58:02;;;;;;;19.70;11.93;;;;;;;;;;5073174;28;20025;-77
2021/06/25 21:00:28;;;;;;;18.65;13.10;;;;;;;;;;5075868;28;20020;-77
2021/06/25 21:02:54;;;;;;;17.92;12.13;;;;;;;;;;5066319;28;20071;-77
2021/06/25 21:05:20;;;;;;;14.32;11.55;;;;;;;;;;5059383;28;20051;-77
2021/06/25 21:07:46;;;;;;;14.65;11.63;;;;;;;;;;5058698;28;20036;-77
2021/06/25 21:10:13;;;;;;;12.32;10.23;;;;;;;;;;5061234;28;20511;-77
2021/06/25 21:12:39;;;;;;;15.27;11.38;;;;;;;;;;5062777;28;20437;-77
2021/06/25 21:15:06;;;;;;;18.23;11.85;;;;;;;;;;5065913;28;20036;-77
2021/06/25 21:17:33;;;;;;;14.77;12.13;;;;;;;;;;5064737;28;20021;-77
2021/06/25 21:19:59;;;;;;;16.38;11.80;;;;;;;;;;5065789;28;20116;-77
2021/06/25 21:22:26;;;;;;;14.65;12.10;;;;;;;;;;5068838;28;20393;-77
2021/06/25 21:24:53;;;;;;;15.23;12.13;;;;;;;;;;5066897;28;20009;-77
2021/06/25 21:27:19;;;;;;;15.93;12.07;;;;;;;;;;5069637;28;20052;-78
2021/06/25 21:29:45;;;;;;;18.52;13.15;;;;;;;;;;5074703;28;20067;-77
2021/06/25 21:32:11;;;;;;;16.88;12.93;;;;;;;;;;5075989;28;20029;-77
2021/06/25 21:34:37;;;;;;;27.75;13.30;;;;;;;;;;5074464;28;20025;-77
2021/06/25 21:37:03;;;;;;;18.45;13.40;;;;;;;;;;5058146;28;20017;-77
2021/06/25 21:39:30;;;;;;;30.83;15.45;;;;;;;;;;5054544;28;20107;-77
2021/06/25 21:41:56;;;;;;;20.40;12.45;;;;;;;;;;5055741;28;20021;-77
2021/06/25 21:44:23;;;;;;;16.00;12.23;;;;;;;;;;5054929;28;20033;-77
2021/06/25 21:46:49;;;;;;;18.02;12.90;;;;;;;;;;5054554;28;20074;-77
2021/06/25 21:49:15;;;;;;;15.38;12.48;;;;;;;;;;5054025;28;20025;-77
2021/06/25 21:51:41;;;;;;;16.98;11.98;;;;;;;;;;5053797;28;20029;-77
2021/06/25 21:54:08;;;;;;;16.25;11.93;;;;;;;;;;5054708;28;20032;-77
2021/06/25 21:56:34;;;;;;;17.08;11.50;;;;;;;;;;5054918;28;20017;-77
2021/06/25 21:59:00;;;;;;;16.27;10.75;;;;;;;;;;5053877;28;20433;-77
2021/06/25 22:01:26;;;;;;;13.43;11.30;;;;;;;;;;5054695;28;20100;-77
2021/06/25 22:03:52;;;;;;;15.52;11.68;;;;;;;;;;5054774;28;20025;-77
2021/06/25 22:06:18;;;;;;;13.60;11.10;;;;;;;;;;5054192;28;20075;-77
2021/06/25 22:08:45;;;;;;;16.33;11.07;;;;;;;;;;5054278;28;20086;-77
2021/06/25 22:11:11;;;;;;;18.30;10.70;;;;;;;;;;5053915;28;20032;-77
2021/06/25 22:13:37;;;;;;;16.40;11.23;;;;;;;;;;5053555;28;20029;-77
2021/06/25 22:16:03;;;;;;;19.35;11.55;;;;;;;;;;5054554;28;20025;-77
2021/06/25 22:18:29;;;;;;;16.00;11.40;;;;;;;;;;5054740;28;20028;-77
2021/06/25 22:20:55;;;;;;;14.70;10.63;;;;;;;;;;5056584;28;20025;-77
2021/06/25 22:23:22;;;;;;;14.30;10.90;;;;;;;;;;5059019;28;20040;-77
2021/06/25 22:25:48;;;;;;;15.38;11.00;;;;;;;;;;5058257;28;20485;-77
2021/06/25 22:28:14;;;;;;;17.27;11.73;;;;;;;;;;5053956;28;20489;-77
2021/06/25 22:30:40;;;;;;;17.05;11.15;;;;;;;;;;5035930;28;20502;-77
2021/06/25 22:33:06;;;;;;;13.85;11.25;;;;;;;;;;5054065;28;20028;-77
2021/06/25 22:35:32;;;;;;;15.32;12.02;;;;;;;;;;5054107;28;20100;-77
2021/06/25 22:37:58;;;;;;;16.30;11.38;;;;;;;;;;5054399;28;20064;-77
2021/06/25 22:40:24;;;;;;;16.98;11.57;;;;;;;;;;5053330;28;20025;-77
2021/06/25 22:42:50;;;;;;;14.48;11.25;;;;;;;;;;5054325;28;20033;-76
2021/06/25 22:45:16;;;;;;;18.70;11.75;;;;;;;;;;5052808;28;20025;-76
2021/06/25 22:47:42;;;;;;;16.63;11.65;;;;;;;;;;5052293;28;20159;-77
2021/06/25 22:50:10;;;;;;;14.43;11.15;;;;;;;;;;5034464;28;20132;-77
2021/06/25 22:52:36;;;;;;;14.90;10.88;;;;;;;;;;5052923;28;20033;-77
2021/06/25 22:55:03;;;;;;;13.35;11.55;;;;;;;;;;5052892;28;20028;-77
2021/06/25 22:57:29;;;;;;;12.57;11.20;;;;;;;;;;5051384;28;20032;-77
2021/06/25 22:59:55;;;;;;;14.50;10.93;;;;;;;;;;5051730;28;20025;-76
2021/06/25 23:02:21;;;;;;;17.70;11.55;;;;;;;;;;5052455;28;20029;-77
2021/06/25 23:04:47;;;;;;;16.83;12.30;;;;;;;;;;5052617;28;20505;-77
2021/06/25 23:07:14;;;;;;;18.50;12.23;;;;;;;;;;5052520;28;20036;-77
2021/06/25 23:09:40;;;;;;;16.02;11.65;;;;;;;;;;5051894;28;20021;-77
2021/06/25 23:12:06;;;;;;;14.52;10.95;;;;;;;;;;5052391;28;20036;-77
2021/06/25 23:14:32;;;;;;;13.88;10.70;;;;;;;;;;5052373;28;20025;-77
2021/06/25 23:16:58;;;;;;;15.10;10.57;;;;;;;;;;5052682;28;20599;-76
2021/06/25 23:19:24;;;;;;;14.20;10.93;;;;;;;;;;5052383;28;20047;-77
2021/06/25 23:21:50;;;;;;;12.23;10.77;;;;;;;;;;5034936;28;20035;-77
2021/06/25 23:24:16;;;;;;;11.95;9.82;;;;;;;;;;5052331;28;20107;-76
2021/06/25 23:26:43;;;;;;;17.90;10.93;;;;;;;;;;5052103;28;20083;-76
2021/06/25 23:29:09;;;;;;;14.45;11.63;;;;;;;;;;5050126;28;20417;-77
2021/06/25 23:31:35;;;;;;;16.27;11.80;;;;;;;;;;5051588;28;20033;-76
2021/06/25 23:34:01;;;;;;;14.55;12.25;;;;;;;;;;5051904;28;20028;-77
2021/06/25 23:36:28;;;;;;;13.50;10.90;;;;;;;;;;5051862;28;20021;-77
2021/06/25 23:38:53;;;;;;;18.40;11.18;;;;;;;;;;5051222;28;20043;-77
2021/06/25 23:41:19;;;;;;;13.77;11.05;;;;;;;;;;5051738;28;20021;-77
2021/06/25 23:43:45;;;;;;;15.43;12.02;;;;;;;;;;5051450;28;20033;-77
2021/06/25 23:46:12;;;;;;;14.48;10.45;;;;;;;;;;5050474;28;20021;-77
2021/06/25 23:48:38;;;;;;;15.15;10.63;;;;;;;;;;5052127;28;20032;-76
2021/06/25 23:51:04;;;;;;;15.10;10.98;;;;;;;;;;5051116;28;20040;-77
2021/06/25 23:53:30;;;;;;;12.50;10.73;;;;;;;;;;5051730;28;20028;-77
2021/06/25 23:55:56;;;;;;;18.02;11.23;;;;;;;;;;5051516;28;20056;-77
2021/06/25 23:58:26;;;;;;;15.95;11.25;;;;;;;;;;5051196;28;20021;-77
